ADDS METAR Data INFO
IDs: Format: Raw Decoded Include TAF

Data at: 0959 UTC 22 May 2018

KSNK 220955Z AUTO 13003KT 10SM CLR 19/17 A3002 RMK AO2 T01900173
KSNK 220935Z AUTO 12004KT 10SM CLR 19/17 A3001 RMK AO2 T01920171
KSNK 220915Z AUTO 12005KT 10SM CLR 19/17 A3001 RMK AO2 T01920168
KSNK 220855Z AUTO 11005KT 10SM CLR 19/17 A3001 RMK AO2 T01920167
KSNK 220835Z AUTO 11005KT 10SM CLR 19/17 A3002 RMK AO2 T01940165
KSNK 220815Z AUTO 11005KT 10SM CLR 20/17 A3001 RMK AO2 T01980165
KSNK 220755Z AUTO 11005KT 10SM CLR 20/16 A3001 RMK AO2 T01990164
KSNK 220735Z AUTO 11003KT 10SM CLR 20/16 A3001 RMK AO2 T02010162
KSNK 220715Z AUTO 14003KT 10SM CLR 20/16 A3000 RMK AO2 T02000163
KSNK 220655Z AUTO 14005KT 10SM CLR 20/16 A2999 RMK AO2 T02010163
KSNK 220635Z AUTO 15005KT 10SM CLR 20/16 A3000 RMK AO2 T02030162
KSNK 220615Z AUTO 15006KT 10SM CLR 21/16 A2999 RMK AO2 T02060162
KSNK 220555Z AUTO 15005KT 10SM CLR 21/16 A2999 RMK AO2 T02100163
KSNK 220535Z AUTO 14007KT 10SM CLR 22/16 A2999 RMK AO2 T02150163
KSNK 220515Z AUTO 15007KT 10SM CLR 21/17 A2999 RMK AO2 T02140165
KSNK 220455Z AUTO 15006KT 10SM CLR 22/16 A2999 RMK AO2 T02190163
KSNK 220435Z AUTO 13008KT 10SM CLR 22/16 A2999 RMK AO2 LTG DSNT NW T02230164
KSNK 220415Z AUTO 13007KT 10SM CLR 22/17 A2999 RMK AO2 T02210166
KSNK 220355Z AUTO 12005KT 10SM CLR 22/16 A2999 RMK AO2 T02230164
KSNK 220335Z AUTO 13006KT 10SM CLR 23/16 A2999 RMK AO2 T02270160
KSNK 220315Z AUTO 12005KT 10SM CLR 23/16 A2999 RMK AO2 T02310157
KSNK 220255Z AUTO 11004KT 10SM CLR 23/16 A2999 RMK AO2 T02330156
KSNK 220235Z AUTO 11004KT 10SM CLR 24/16 A2999 RMK AO2 T02390156
KSNK 220215Z AUTO 11005KT 10SM CLR 25/15 A2998 RMK AO2 T02480152
KSNK 220155Z AUTO 13006KT 10SM CLR 25/15 A2998 RMK AO2 T02540151
KSNK 220140Z AUTO 13006KT 10SM CLR 26/15 A2998 RMK AO2 T02600146
KSNK 220115Z AUTO 13010G14KT 10SM CLR 27/14 A2997 RMK AO2 T02680143
KSNK 220055Z AUTO 13011KT 10SM CLR 28/15 A2997 RMK AO2 T02760145
KSNK 220035Z AUTO 13010KT 10SM CLR 28/15 A2996 RMK AO2 T02800145
KSNK 220015Z AUTO 13009G15KT 10SM SCT060 28/15 A2996 RMK AO2 T02820145
KSNK 212355Z AUTO 12008KT 10SM CLR 28/15 A2997 RMK AO2 T02820145
KSNK 212335Z AUTO 12007KT 10SM CLR 28/15 A2997 RMK AO2 T02840148
KSNK 212315Z AUTO 10010G14KT 10SM CLR 28/14 A2997 RMK AO2 T02830143
KSNK 212255Z AUTO 13012KT 10SM SCT050 28/15 A2998 RMK AO2 T02840150
KSNK 212235Z AUTO 10009G14KT 10SM SCT050 28/16 A2999 RMK AO2 T02810158
KSNK 212215Z AUTO 08012G16KT 10SM BKN050 28/16 A2999 RMK AO2 T02780155
KSNK 212155Z AUTO 09009KT 10SM BKN050 28/16 A3000 RMK AO2 T02780155
KSNK 212135Z AUTO 07011KT 10SM BKN050 28/16 A3001 RMK AO2 T02760155
KSNK 212115Z AUTO 11011KT 10SM SCT048 27/16 A3002 RMK AO2 T02740158
KSNK 212055Z AUTO 08009G15KT 10SM SCT047 27/16 A3003 RMK AO2 T02720158
KSNK 212035Z AUTO 09010KT 10SM SCT045 27/16 A3004 RMK AO2 T02700160
KSNK 212015Z AUTO 07010G17KT 10SM SCT045 26/16 A3005 RMK AO2 T02640157
KSNK 211955Z AUTO 09007G15KT 10SM SCT044 26/16 A3006 RMK AO2 T02620156
KSNK 211935Z AUTO 09009G14KT 10SM SCT044 26/16 A3006 RMK AO2 T02610160
KSNK 211915Z AUTO 09009KT 10SM CLR 26/16 A3007 RMK AO2 T02560163
KSNK 211855Z AUTO 10011G14KT 10SM SCT033 25/17 A3008 RMK AO2 T02490166
KSNK 211835Z AUTO 07010G14KT 10SM SCT033 25/17 A3008 RMK AO2 T02450167
KSNK 211815Z AUTO 09009KT 10SM SCT030 24/17 A3009 RMK AO2 T02390167
KSNK 211755Z AUTO 06006KT 10SM SCT030 23/16 A3009 RMK AO2 T02340164
KSNK 211735Z AUTO 08009KT 10SM SCT028 23/17 A3010 RMK AO2 T02310165
KSNK 211715Z AUTO 08009KT 10SM SCT026 SCT032 23/17 A3010 RMK AO2 T02250169
KSNK 211655Z AUTO 07008KT 10SM SCT022 BKN032 22/17 A3012 RMK AO2 T02200167
KSNK 211635Z AUTO 09007KT 10SM SCT024 BKN032 22/17 A3012 RMK AO2 T02160166
KSNK 211615Z AUTO 07009KT 10SM BKN021 OVC029 21/17 A3013 RMK AO2 T02120166
KSNK 211555Z AUTO 08010KT 10SM BKN018 BKN027 OVC032 21/17 A3014 RMK AO2 T02110168
KSNK 211535Z AUTO 08010G14KT 10SM BKN015 BKN022 BKN033 21/17 A3013 RMK AO2 T02070173
KSNK 211515Z AUTO 06009KT 10SM BKN011 20/18 A3013 RMK AO2 T01990175
KSNK 211455Z AUTO 07011KT 10SM OVC009 20/18 A3013 RMK AO2 T01950177
KSNK 211435Z AUTO 06009KT 10SM OVC007 19/18 A3013 RMK AO2 T01870177
KSNK 211415Z AUTO 08008KT 10SM OVC007 19/18 A3013 RMK AO2 T01850176
KSNK 211355Z AUTO 07007KT 10SM OVC007 18/18 A3013 RMK AO2 T01820175
KSNK 211335Z AUTO 08009KT 10SM OVC007 18/17 A3012 RMK AO2 T01790173
KSNK 211315Z AUTO 07009KT 10SM BKN007 OVC017 18/17 A3012 RMK AO2 T01760171
KSNK 211255Z AUTO 07008KT 10SM OVC015 17/17 A3011 RMK AO2 T01730168
KSNK 211235Z AUTO 07009KT 10SM OVC011 17/17 A3009 RMK AO2 T01710166
KSNK 211215Z AUTO 07007KT 10SM OVC011 17/16 A3009 RMK AO2 T01690164
KSNK 211155Z AUTO 07007KT 10SM BKN011 17/16 A3008 RMK AO2 T01660161
KSNK 211135Z AUTO 07007KT 10SM SCT011 17/16 A3008 RMK AO2 T01650160
KSNK 211115Z AUTO 07006KT 10SM SCT016 SCT030 SCT034 17/16 A3008 RMK AO2 T01650159
KSNK 211055Z AUTO 09006KT 10SM SCT016 SCT034 17/16 A3008 RMK AO2 T01650158
KSNK 211035Z AUTO 07005KT 10SM CLR 16/16 A3008 RMK AO2 T01630157
KSNK 211015Z AUTO 06004KT 10SM CLR 16/16 A3007 RMK AO2 T01630155
KSNK 210955Z AUTO 06005KT 10SM CLR 16/16 A3005 RMK AO2 T01630155
KSNK 210935Z AUTO 04006KT 10SM CLR 17/16 A3004 RMK AO2 T01650155
KSNK 210915Z AUTO 06006KT 10SM CLR 17/15 A3004 RMK AO2 T01650154
KSNK 210855Z AUTO 06007KT 10SM CLR 17/15 A3004 RMK AO2 T01650153
KSNK 210835Z AUTO 05005KT 10SM CLR 17/15 A3004 RMK AO2 T01650154
KSNK 210815Z AUTO 05005KT 10SM CLR 17/16 A3004 RMK AO2 T01650155
KSNK 210755Z AUTO 04005KT 10SM CLR 17/16 A3004 RMK AO2 T01670155
KSNK 210735Z AUTO 04006KT 10SM CLR 17/16 A3005 RMK AO2 T01680155
KSNK 210715Z AUTO 04005KT 10SM CLR 17/16 A3005 RMK AO2 T01700155
KSNK 210655Z AUTO 04005KT 10SM CLR 17/15 A3006 RMK AO2 T01720154
KSNK 210635Z AUTO 05006KT 10SM CLR 17/15 A3007 RMK AO2 T01740153
KSNK 210615Z AUTO 05007KT 10SM CLR 18/15 A3007 RMK AO2 T01750153
KSNK 210555Z AUTO 05006KT 10SM CLR 18/15 A3008 RMK AO2 T01750152
KSNK 210535Z AUTO 05006KT 10SM CLR 18/15 A3008 RMK AO2 T01760152
KSNK 210515Z AUTO 05005KT 10SM CLR 18/15 A3009 RMK AO2 T01780150
KSNK 210455Z AUTO 05005KT 10SM CLR 18/15 A3009 RMK AO2 T01800150
KSNK 210435Z AUTO 05005KT 10SM CLR 18/15 A3009 RMK AO2 T01780152
KSNK 210415Z AUTO 04004KT 10SM CLR 18/15 A3009 RMK AO2 T01800152
KSNK 210355Z AUTO 04004KT 10SM CLR 18/15 A3009 RMK AO2 T01830151
KSNK 210335Z AUTO 04005KT 10SM CLR 19/15 A3009 RMK AO2 T01860150
KSNK 210315Z AUTO 05005KT 10SM CLR 19/15 A3009 RMK AO2 T01870149
KSNK 210255Z AUTO 04006KT 10SM CLR 19/15 A3008 RMK AO2 T01900149
KSNK 210235Z AUTO 05005KT 10SM CLR 19/15 A3007 RMK AO2 T01920147
KSNK 210215Z AUTO 05006KT 10SM CLR 19/15 A3007 RMK AO2 T01940148
KSNK 210155Z AUTO 05007KT 10SM CLR 20/15 A3007 RMK AO2 T01960148
KSNK 210135Z AUTO 06009KT 10SM CLR 20/15 A3006 RMK AO2 T01990148
KSNK 210115Z AUTO 05008KT 10SM CLR 20/15 A3006 RMK AO2 T02010149
KSNK 210055Z AUTO 05010KT 10SM CLR 20/15 A3005 RMK AO2 T02030150
KSNK 210035Z AUTO 05010KT 10SM CLR 20/15 A3005 RMK AO2 T02040152
KSNK 210015Z AUTO 04009KT 10SM SCT034 20/15 A3006 RMK AO2 T02020152
KSNK 202355Z AUTO 05010KT 10SM SCT024 BKN034 20/15 A3006 RMK AO2 T02020152
KSNK 202335Z AUTO 05010KT 10SM SCT024 SCT034 20/15 A3006 RMK AO2 T02040152
KSNK 202315Z AUTO 05009KT 10SM SCT029 BKN036 20/15 A3006 RMK AO2 T02030151
KSNK 202255Z AUTO 07010KT 10SM SCT022 OVC032 20/15 A3007 RMK AO2 T01990151
KSNK 202235Z AUTO 06012G17KT 10SM BKN024 OVC030 20/15 A3007 RMK AO2 T01990153
KSNK 202215Z AUTO 08012KT 10SM OVC024 21/16 A3008 RMK AO2 T02050155